Tiempo atmosférico en la estación meteorológica de Aldeanueva de Serrezuela, Segovia (1135 m.)

Fecha
DESCASC
Temp. máxima en grados centígrados (hora)
DESCASC
Temp. mínima en grados centígrados (hora)
DESCASC
Temp. media en grados centígrados
DESCASC
Racha de viento máxima en m/sg (hora)
DESCASC
Velocidad máxima media en intervalos de 10 minutos(hora)
DESCASC
Precipitaciones diarias en mm
DESCASC
Precipitaciones de 00:00 a 06:00 en mm
DESCASC
Precipitaciones de 06:00 a 12:00 en mm
DESCASC
Precipitaciones de 12:00 a 18:00 en mm
DESCASC
Precipitaciones de 18:00 a 24:00 en mm
DESCASC
23-11-2017 15.1 (14:10) 11 (06:40) 13.1 16.11 (13:40) 10 (13:40) 0 0 0 0 0
22-11-2017 18.1 (15:10) 8.4 (03:10) 13.3 14.44 (23:10) 8.61 (23:40) 0 0 0 0 0
21-11-2017 16.1 (15:20) 7.6 (07:00) 11.9 6.39 (15:00) 4.17 (14:50) 0 0 0 0 0
20-11-2017 15.6 (16:30) 7.2 (03:30) 11.4 4.17 (01:20) 3.33 (22:40) 0 0 0 0 0
19-11-2017 13.9 (14:50) 4.5 (00:00) 9.2 3.89 (14:10) 2.5 (22:00) 0 0 0 0 0
18-11-2017 13.5 (15:20) 5.8 (00:00) 9.7 4.72 (21:40) 3.33 (13:00) 0 0 0 0 0
17-11-2017 14.9 (14:50) 7.8 (00:00) 11.3 5 (13:10) 3.33 (13:10) 0 0 0 0 0
16-11-2017 15.3 (15:10) 5.3 (00:00) 10.3 3.61 (14:40) 2.5 (00:10) 0 0 0 0 0
15-11-2017 13.9 (15:30) 2.8 (00:00) 8.3 5.56 (16:10) 3.61 (15:50) 0 0 0 0 0
14-11-2017 9.8 (16:10) -1.7 (-00:0) 4.1 5.56 (15:10) 3.89 (23:10) 0 0 0 0 0
13-11-2017 6.4 (00:00) -0.9 (-00:0) 2.8 13.61 (13:00) 7.78 (13:20) 0 0 0 0 0
12-11-2017 12.6 (15:30) 4.5 (00:00) 8.6 8.06 (14:30) 5.28 (14:30) 0 0 0 0 0
11-11-2017 9.7 (16:50) 3.3 (00:00) 6.5 4.72 (10:50) 3.06 (12:50) 0 0 0 0 0
10-11-2017 8.9 (17:20) 1.9 (00:00) 5.4 7.78 (20:50) 4.44 (21:00) 0 0 0 0 0
09-11-2017 6 (15:50) -1.1 (-00:0) 2.4 8.06 (15:30) 5 (14:30) 0.2 0 0.2 0 0
08-11-2017 7 (00:00) -0.9 (-00:0) 3.1 12.5 (17:40) 6.94 (17:40) 1.8 0 0 1 0.8
07-11-2017 10.1 (15:40) 0.6 (00:00) 5.4 6.94 (12:40) 4.72 (15:20) 0 0 0 0 0
06-11-2017 7.6 (15:10) 1 (00:00) 4.3 10.28 (14:10) 5.83 (15:50) 0 0 0 0 0
05-11-2017 9 (15:00) 2.2 (00:00) 5.6 7.5 (20:40) 4.44 (20:40) 0 0 0 0 0
04-11-2017 12.6 (14:10) 7.1 (00:00) 9.9 10.83 (08:10) 6.94 (08:00) 2.4 1.2 1 0.2 0
03-11-2017 14.7 (15:40) 7.4 (00:00) 11 17.22 (06:00) 11.67 (06:00) 2 1 1 0 0
02-11-2017 15.4 (14:50) 11.2 (08:00) 13.3 10.28 (21:50) 7.5 (21:50) 0 0 0 0 0
01-11-2017 17.6 (13:20) 9.6 (00:00) 13.6 -- (--) -- (--) -- 0 0 0 --
31-10-2017 17.4 (15:40) 2.8 (00:00) 10.1 5.56 (15:30) 3.61 (16:50) 0 0 0 0 0
30-10-2017 14.7 (14:10) 3.2 (00:00) 8.9 8.89 (14:50) 5 (15:20) 0 0 0 0 0
29-10-2017 16.5 (15:40) 4.3 (00:00) 10.4 5 (16:50) 3.33 (17:20) 0 0 0 0 0
28-10-2017 16.9 (15:30) 6.4 (00:00) 11.6 5.28 (17:30) 3.06 (17:40) 0 0 0 0 0
27-10-2017 20.7 (15:30) 9.6 (00:00) 15.2 10 (15:50) 6.11 (15:40) 0 0 0 0 0
26-10-2017 22.5 (17:40) 13.4 (00:00) 17.9 5 (01:00) 4.17 (01:00) 0 0 0 0 0

Gráficas

Temp. máximas Temp. mínimas Temp. medias Precipitaciones Rachas de viento máximas Velocidades máximas media en intervalos de 10 minutos

Datos horarios

Fecha y hora oficial Temperatura (ºC) Velocidad del viento (km/h) Dirección del viento Racha (km/h) Dirección de racha Precipitación (mm) Presión (hPa) Tendencia (hPa) Humedad (%)
2017-11-24 23:00:00 9.3 32 Sudoeste 47 Sudoeste 0 -- -- 80
2017-11-24 22:00:00 8.9 23 Sudoeste 35 Sudoeste 0.2 -- -- 93
2017-11-24 21:00:00 8.1 14 Sudoeste 27 Oeste 0 -- -- 96
2017-11-24 20:00:00 9.7 14 Sudoeste 28 Sudoeste 0.2 -- -- 98
2017-11-24 19:00:00 10.2 17 Sudoeste 26 Sudoeste 0.6 -- -- 98
2017-11-24 18:00:00 10.4 15 Sudoeste 27 Sudoeste 0 -- -- 97
2017-11-24 17:00:00 10.5 18 Sudoeste 31 Sudoeste 0.8 -- -- 98
2017-11-24 16:00:00 10.2 9 Sudoeste 21 Sudoeste 0.4 -- -- 97
2017-11-24 15:00:00 10.3 15 Sudoeste 30 Sudoeste 0 -- -- 95
2017-11-24 14:00:00 10.4 17 Sudoeste 27 Sudoeste 0 -- -- 97
2017-11-24 13:00:00 9.5 14 Sudoeste 28 Sudoeste 0.4 -- -- 99
2017-11-24 12:00:00 9 19 Sudoeste 39 Oeste 1.6 -- -- 99
2017-11-24 11:00:00 9 22 Sudoeste 33 Sudoeste 0.6 -- -- 96
2017-11-24 10:00:00 10.1 18 Sudoeste 28 Sudoeste 0 -- -- 84
2017-11-24 09:00:00 9.3 18 Sudoeste 30 Sudoeste 0 -- -- 86
2017-11-24 08:00:00 9 18 Sudoeste 32 Sudoeste 0 -- -- 79
2017-11-24 07:00:00 8.7 19 Sudoeste 35 Sudoeste 0 -- -- 78
2017-11-24 06:00:00 8.4 22 Sudoeste 42 Sudoeste 0 -- -- 80
2017-11-24 05:00:00 9.3 27 Sudoeste 43 Sudoeste 0.2 -- -- 76
2017-11-24 04:00:00 9.4 19 Sudoeste 30 Sudoeste 0 -- -- 71
2017-11-24 03:00:00 8.7 17 Sur 30 Sur 0 -- -- 77
2017-11-24 02:00:00 7.8 20 Sur 33 Sudoeste 0.8 -- -- 85
2017-11-24 01:00:00 8.4 26 Sudoeste 55 Sudoeste 0.6 -- -- 85
2017-11-24 00:00:00 11.8 34 Sudoeste 51 Sudoeste 0 -- -- 50
2017-11-23 23:00:00 12.2 30 Sudoeste 47 Sudoeste 0 -- -- 41
2017-11-23 22:00:00 12.4 22 Sudoeste 32 Sudoeste 0 -- -- 41
2017-11-23 21:00:00 12.3 19 Sudoeste 28 Sudoeste 0 -- -- 44
2017-11-23 20:00:00 12.2 16 Sudoeste 25 Sudoeste 0 -- -- 45
2017-11-23 19:00:00 12.3 14 Sudoeste 25 Sudoeste 0 -- -- 44
2017-11-23 18:00:00 13.1 13 Sudoeste 37 Oeste 0 -- -- 44
2017-11-23 17:00:00 14 26 Oeste 46 Oeste 0 -- -- 41
2017-11-23 16:00:00 14.4 26 Oeste 45 Oeste 0 -- -- 39
2017-11-23 15:00:00 14.4 26 Oeste 52 Sudoeste 0 -- -- 45
2017-11-23 14:00:00 15 31 Sudoeste 58 Sudoeste 0 -- -- 41
2017-11-23 13:00:00 13.9 25 Sudoeste 45 Oeste 0 -- -- 44
2017-11-23 12:00:00 13.4 31 Sudoeste 48 Sudoeste 0 -- -- 40
2017-11-23 11:00:00 13.4 25 Sudoeste 38 Sudoeste 0 -- -- 41
2017-11-23 10:00:00 11.2 28 Sudoeste 50 Sudoeste 0 -- -- 49
2017-11-23 09:00:00 11.6 22 Sudoeste 37 Sudoeste 0 -- -- 40
2017-11-23 08:00:00 11.5 22 Sudoeste 37 Sudoeste 0 -- -- 40
2017-11-23 07:00:00 11.3 22 Sudoeste 42 Sudoeste 0 -- -- 41
2017-11-23 06:00:00 11.5 26 Sudoeste 42 Sudoeste 0 -- -- 43
2017-11-23 05:00:00 11.7 23 Sudoeste 37 Sudoeste 0 -- -- 43
2017-11-23 04:00:00 11.6 25 Sudoeste 45 Sudoeste 0 -- -- 42
2017-11-23 03:00:00 12 28 Sudoeste 45 Sudoeste 0 -- -- 41
2017-11-23 02:00:00 11.9 28 Sudoeste 45 Sudoeste 0 -- -- 40
2017-11-23 01:00:00 12.2 30 Sudoeste 48 Sudoeste 0 -- -- 39
2017-11-23 00:00:00 12.2 30 Sudoeste 52 Sudoeste 0 -- -- 36
2017-11-22 23:00:00 12.3 30 Sudoeste 50 Sudoeste 0 -- -- 35
2017-11-22 22:00:00 13 29 Sudoeste 45 Sudoeste 0 -- -- 33
2017-11-22 21:00:00 12.6 27 Sudoeste 39 Sudoeste 0 -- -- 35
2017-11-22 20:00:00 12.2 22 Sudoeste 35 Sudoeste 0 -- -- 37
2017-11-22 19:00:00 12.1 17 Sudoeste 23 Sudoeste 0 -- -- 39
2017-11-22 18:00:00 13.1 14 Sudoeste 29 Sudoeste 0 -- -- 35
2017-11-22 17:00:00 15.2 10 Oeste 25 Oeste 0 -- -- 31
2017-11-22 16:00:00 17.6 20 Oeste 33 Oeste 0 -- -- 26
2017-11-22 15:00:00 18 17 Sudoeste 31 Sudoeste 0 -- -- 25
2017-11-22 14:00:00 17.3 17 Sur 34 Sudoeste 0 -- -- 25
2017-11-22 13:00:00 16.6 15 Sudoeste 26 Sudoeste 0 -- -- 25
2017-11-22 12:00:00 15.8 14 Sudoeste 23 Sudoeste 0 -- -- 25
2017-11-22 11:00:00 14.4 12 Sudoeste 20 Sur 0 -- -- 27
2017-11-22 10:00:00 12.8 8 Sudoeste 15 Sudoeste 0 -- -- 33
2017-11-22 09:00:00 10.1 13 Sudoeste 17 Sudoeste 0 -- -- 36
2017-11-22 08:00:00 9.4 12 Sudoeste 18 Sudoeste 0 -- -- 36
2017-11-22 07:00:00 8.8 12 Sur 22 Sur 0 -- -- 40
2017-11-22 06:00:00 9.4 14 Sudoeste 19 Sur 0 -- -- 41
2017-11-22 05:00:00 9.5 12 Sudoeste 20 Sudoeste 0 -- -- 41
2017-11-22 04:00:00 9.6 15 Sudoeste 22 Sudoeste 0 -- -- 39
2017-11-22 03:00:00 8.5 12 Sudoeste 15 Sudoeste 0 -- -- 42
2017-11-22 02:00:00 9.1 12 Sudoeste 17 Sudoeste 0 -- -- 40
2017-11-22 01:00:00 9.6 12 Sudoeste 19 Sudoeste 0 -- -- 38
2017-11-22 00:00:00 10 12 Sur 17 Sur 0 -- -- 36
2017-11-21 23:00:00 9.9 13 Sur 16 Sur 0 -- -- 35
2017-11-21 22:00:00 9.7 11 Sur 14 Sur 0 -- -- 35
2017-11-21 21:00:00 9.7 8 Sudoeste 10 Sur 0 -- -- 34
2017-11-21 20:00:00 10.1 5 Sur 8 Sudoeste 0 -- -- 36
2017-11-21 19:00:00 10.1 5 Sudoeste 6 Sudoeste 0 -- -- 35
2017-11-21 18:00:00 11.4 5 Sudoeste 13 Oeste 0 -- -- 33
2017-11-21 17:00:00 15 10 Oeste 21 Oeste 0 -- -- 26
2017-11-21 16:00:00 15.8 13 Oeste 22 Sudoeste 0 -- -- 25
2017-11-21 15:00:00 15.8 14 Sudoeste 23 Sudoeste 0 -- -- 25
2017-11-21 14:00:00 15.4 13 Oeste 22 Sudoeste 0 -- -- 24
2017-11-21 13:00:00 15 13 Sudoeste 21 Sudoeste 0 -- -- 27
2017-11-21 12:00:00 14.5 13 Sudoeste 20 Sudoeste 0 -- -- 29
2017-11-21 11:00:00 13.3 9 Sudoeste 13 Sudoeste 0 -- -- 31
2017-11-21 10:00:00 11.3 5 Sudoeste 9 Sudoeste 0 -- -- 31
2017-11-21 09:00:00 8.5 6 Sudoeste 9 Sudoeste 0 -- -- 30
2017-11-21 08:00:00 8.1 8 Sudoeste 10 Sudoeste 0 -- -- 29
2017-11-21 07:00:00 7.6 8 Sudoeste 9 Sudoeste 0 -- -- 32
2017-11-21 06:00:00 7.9 7 Sudoeste 9 Sudoeste 0 -- -- 33
2017-11-21 05:00:00 8.2 6 Sudoeste 12 Sudoeste 0 -- -- 33
2017-11-21 04:00:00 7.9 10 Sudoeste 12 Sudoeste 0 -- -- 36
2017-11-21 03:00:00 8.2 9 Sudoeste 10 Sudoeste 0 -- -- 40
2017-11-21 02:00:00 8.7 6 Sudoeste 9 Sudoeste 0 -- -- 37
2017-11-21 01:00:00 8.8 8 Sudoeste 10 Sudoeste 0 -- -- 36
2017-11-21 00:00:00 9.7 8 Sudoeste 13 Sudoeste 0 -- -- 31
2017-11-20 23:00:00 9.8 12 Sur 14 Sur 0 -- -- 34
2017-11-20 22:00:00 10 11 Sur 13 Sur 0 -- -- 31
2017-11-20 21:00:00 10.7 2 Sur 5 Sudeste 0 -- -- 29
2017-11-20 20:00:00 9.3 4 Sudeste -- -- 0 -- -- 38
2017-11-20 19:00:00 8.7 3 Este 5 Sudeste 0 -- -- 38
2017-11-20 18:00:00 11.9 4 Oeste 9 Oeste 0 -- -- 32
2017-11-20 17:00:00 14.7 6 Oeste 12 Sudoeste 0 -- -- 29
2017-11-20 16:00:00 15.3 8 Oeste 12 Sudoeste 0 -- -- 27
2017-11-20 15:00:00 15.4 6 Oeste 10 Noroeste 0 -- -- 27
2017-11-20 14:00:00 14.2 4 Noroeste 11 Sudoeste 0 -- -- 30
2017-11-20 13:00:00 13 4 Norte 11 Noroeste 0 -- -- 33
2017-11-20 12:00:00 12.4 7 Noroeste 13 Noroeste 0 -- -- 36
2017-11-20 11:00:00 12.8 4 Noroeste 8 Oeste 0 -- -- 29
2017-11-20 10:00:00 11.3 4 Sudoeste 10 Sudoeste 0 -- -- 28
2017-11-20 09:00:00 8.6 6 Sudoeste 8 Sudoeste 0 -- -- 28
2017-11-20 08:00:00 8.5 5 Sudoeste 12 Sudoeste 0 -- -- 28
2017-11-20 07:00:00 7.7 9 Sudoeste 12 Sudoeste 0 -- -- 25
2017-11-20 06:00:00 7.7 8 Sudoeste 14 Sudoeste 0 -- -- 23
2017-11-20 05:00:00 8.3 11 Sudoeste 14 Sudoeste 0 -- -- 23
2017-11-20 04:00:00 7.4 11 Sudoeste 13 Sudoeste 0 -- -- 26
2017-11-20 03:00:00 7.4 8 Sudoeste 13 Sudoeste 0 -- -- 28
2017-11-20 02:00:00 7.7 9 Sudoeste 15 Sudoeste 0 -- -- 27
2017-11-20 01:00:00 8.2 10 Sudoeste 13 Sudoeste 0 -- -- 28
2017-11-20 00:00:00 8.4 9 Sudoeste 10 Sudoeste 0 -- -- 28
2017-11-19 23:00:00 9 6 Sudoeste 9 Sudoeste 0 -- -- 27
2017-11-19 22:00:00 8.7 9 Sudoeste 10 Sudoeste 0 -- -- 31
2017-11-19 21:00:00 9.2 3 Sur 4 Sur 0 -- -- 31
2017-11-19 20:00:00 9.3 0 Calma 5 Sudeste 0 -- -- 34
2017-11-19 19:00:00 7.8 3 Sudeste 4 Sudeste 0 -- -- 48
2017-11-19 18:00:00 9.9 0 Calma 8 Noroeste 0 -- -- 41
2017-11-19 17:00:00 11.9 7 Noroeste 10 Oeste 0 -- -- 41
2017-11-19 16:00:00 13.6 5 Noroeste 12 Oeste 0 -- -- 36
2017-11-19 15:00:00 13.7 6 Noroeste 14 Noroeste 0 -- -- 36
2017-11-19 14:00:00 13.6 7 Noroeste 13 Sudoeste 0 -- -- 39
2017-11-19 13:00:00 13.3 6 Oeste 12 Oeste 0 -- -- 43
2017-11-19 12:00:00 11.6 3 Noroeste 11 Norte 0 -- -- 53
2017-11-19 11:00:00 10.9 4 Oeste 10 Oeste 0 -- -- 54
2017-11-19 10:00:00 9.7 5 Oeste 8 Oeste 0 -- -- 55
2017-11-19 09:00:00 7.5 0 Calma 3 Sudoeste 0 -- -- 58
2017-11-19 08:00:00 6.9 4 Sudoeste 6 Sudoeste 0 -- -- 58
2017-11-19 07:00:00 7.7 3 Sudoeste -- -- 0 -- -- 58
2017-11-19 06:00:00 5.4 6 Este 8 Este 0 -- -- 58
2017-11-19 05:00:00 5.3 6 Este 8 Nordeste 0 -- -- 70
2017-11-19 04:00:00 5.1 5 Nordeste 9 Este 0 -- -- 68
2017-11-19 03:00:00 7.1 5 Nordeste 6 Norte 0 -- -- 60
2017-11-19 02:00:00 7.4 2 Sudeste 6 Sudeste 0 -- -- 60
2017-11-19 01:00:00 8 5 Sur 8 Sudeste 0 -- -- 58
2017-11-19 00:00:00 8 5 Sudeste 8 Sudeste 0 -- -- 59
2017-11-18 23:00:00 6.2 0 Calma 12 Nordeste 0 -- -- 70
2017-11-18 22:00:00 9 9 Sur 17 Sur 0 -- -- 56
2017-11-18 21:00:00 7.6 6 Sudeste 10 Sudeste 0 -- -- 61
2017-11-18 20:00:00 6.8 0 Calma 5 Noroeste 0 -- -- 74
2017-11-18 19:00:00 8.1 0 Calma 4 Noroeste 0 -- -- 69
2017-11-18 18:00:00 10.1 0 Calma 11 Noroeste 0 -- -- 60
2017-11-18 17:00:00 13 6 Noroeste 9 Noroeste 0 -- -- 44
2017-11-18 16:00:00 13.1 5 Norte 14 Norte 0 -- -- 44
2017-11-18 15:00:00 13.4 7 Noroeste 13 Noroeste 0 -- -- 44
2017-11-18 14:00:00 12 3 Norte 14 Norte 0 -- -- 49
2017-11-18 13:00:00 12.4 12 Norte 16 Norte 0 -- -- 48
2017-11-18 12:00:00 12.6 4 Norte 9 Nordeste 0 -- -- 48
2017-11-18 11:00:00 10.5 5 Nordeste 9 Nordeste 0 -- -- 54
2017-11-18 10:00:00 10.5 0 Calma 4 Sur 0 -- -- 52
2017-11-18 09:00:00 7 2 Sudeste 8 Noroeste 0 -- -- 60
2017-11-18 08:00:00 7.6 0 Calma 6 Nordeste 0 -- -- 56
2017-11-18 07:00:00 6 5 Este 8 Este 0 -- -- 62
2017-11-18 06:00:00 6.9 4 Este 8 Este 0 -- -- 58
2017-11-18 05:00:00 7.2 4 Sudeste 6 Este 0 -- -- 57
2017-11-18 04:00:00 6.9 2 Sudeste 5 Este 0 -- -- 58
2017-11-18 03:00:00 8 2 Sudoeste 9 Sudoeste 0 -- -- 54
2017-11-18 02:00:00 8 9 Sudoeste 10 Sudoeste 0 -- -- 54
2017-11-18 01:00:00 7.8 0 Calma 11 Sudoeste 0 -- -- 56
2017-11-18 00:00:00 9.1 5 Sur 10 Sudoeste 0 -- -- 53
2017-11-17 23:00:00 9.2 2 Sur 13 Sur 0 -- -- 51
2017-11-17 22:00:00 10 10 Sur 12 Sur 0 -- -- 49
2017-11-17 21:00:00 10.3 6 Sudoeste 8 Sudoeste 0 -- -- 49
2017-11-17 20:00:00 9.9 0 Calma 6 Norte 0 -- -- 49
2017-11-17 19:00:00 10.3 0 Calma 6 Sur 0 -- -- 47
2017-11-17 18:00:00 11.5 3 Sudoeste 9 Noroeste 0 -- -- 48
2017-11-17 17:00:00 14 5 Oeste 10 Oeste 0 -- -- 40
2017-11-17 16:00:00 14.6 6 Oeste 13 Oeste 0 -- -- 39
2017-11-17 15:00:00 14.8 8 Oeste 13 Oeste 0 -- -- 38
2017-11-17 14:00:00 14.5 7 Oeste 18 Oeste 0 -- -- 39
2017-11-17 13:00:00 14.7 9 Oeste 15 Oeste 0 -- -- 38
2017-11-17 12:00:00 13.8 8 Noroeste 12 Oeste 0 -- -- 40
2017-11-17 11:00:00 12.7 8 Oeste 11 Oeste 0 -- -- 42
2017-11-17 10:00:00 11.5 3 Oeste 6 Oeste 0 -- -- 45
2017-11-17 09:00:00 9.3 6 Sudoeste 9 Sudoeste 0 -- -- 51
2017-11-17 08:00:00 8.1 8 Sudoeste 10 Sudoeste 0 -- -- 49
2017-11-17 07:00:00 8.2 5 Sudoeste 8 Sudoeste 0 -- -- 48
2017-11-17 06:00:00 8.7 6 Sudoeste 10 Sudoeste 0 -- -- 48
2017-11-17 05:00:00 8.9 9 Sudoeste 14 Sudoeste 0 -- -- 48
2017-11-17 04:00:00 8.5 7 Sudoeste 8 Sudoeste 0 -- -- 50
2017-11-17 03:00:00 8.7 0 Calma 3 Oeste 0 -- -- 49
2017-11-17 02:00:00 9.2 2 Sur 5 Este 0 -- -- 48
2017-11-17 01:00:00 9.7 4 Sur 5 Sur 0 -- -- 47
2017-11-17 00:00:00 9.7 2 Sudeste -- -- 0 -- -- 48
2017-11-16 23:00:00 12.6 3 Sur -- -- 0 -- -- 39
2017-11-16 22:00:00 11.3 2 Sur 5 Sur 0 -- -- 42
2017-11-16 21:00:00 11.6 5 Sur 5 Sur 0 -- -- 42
2017-11-16 20:00:00 11.6 2 Sur 4 Sur 0 -- -- 42
2017-11-16 19:00:00 11.9 0 Calma 5 Este 0 -- -- 40
2017-11-16 18:00:00 11.4 4 Este 5 Este 0 -- -- 41
2017-11-16 17:00:00 14.2 4 Norte 12 Noroeste 0 -- -- 37
2017-11-16 16:00:00 15.2 5 Norte 12 Oeste 0 -- -- 33
2017-11-16 15:00:00 15 6 Noroeste 13 Noroeste 0 -- -- 35
2017-11-16 14:00:00 14.7 7 Noroeste 12 Oeste 0 -- -- 37
2017-11-16 13:00:00 14.3 6 Oeste 12 Noroeste 0 -- -- 39
2017-11-16 12:00:00 13.1 4 Noroeste 9 Noroeste 0 -- -- 41
2017-11-16 11:00:00 11.8 4 Noroeste 7 Oeste 0 -- -- 42
2017-11-16 10:00:00 10.2 0 Calma 4 Sudoeste 0 -- -- 40
2017-11-16 09:00:00 7.8 3 Sudoeste 4 Sudoeste 0 -- -- 46
2017-11-16 08:00:00 5.3 3 Nordeste 4 Nordeste 0 -- -- 46
2017-11-16 07:00:00 6.1 0 Calma 6 Este 0 -- -- 42
2017-11-16 06:00:00 6.1 3 Este 5 Este 0 -- -- 43
2017-11-16 05:00:00 7 4 Sudoeste 5 Sudoeste 0 -- -- 48
2017-11-16 04:00:00 6.1 0 Calma 5 Este 0 -- -- 45
2017-11-16 03:00:00 5.9 3 Sudeste 8 Este 0 -- -- 46
2017-11-16 02:00:00 6 4 Sudeste 8 Este 0 -- -- 46
2017-11-16 01:00:00 5.6 5 Sudoeste 11 Sudoeste 0 -- -- 54
2017-11-16 00:00:00 5.4 10 Sudoeste 12 Sudoeste 0 -- -- 58
2017-11-15 23:00:00 5.7 4 Sudoeste 5 Sudoeste 0 -- -- 58
2017-11-15 22:00:00 6.5 3 Sudoeste 5 Sudoeste 0 -- -- 58
2017-11-15 21:00:00 6 3 Sur 6 Sudoeste 0 -- -- 59
2017-11-15 20:00:00 5.5 5 Sur 7 Sudoeste 0 -- -- 62
2017-11-15 19:00:00 6.5 5 Sudoeste 6 Sudoeste 0 -- -- 60
2017-11-15 18:00:00 8.4 5 Sudoeste 14 Oeste 0 -- -- 55
2017-11-15 17:00:00 11.2 12 Oeste 20 Oeste 0 -- -- 49
2017-11-15 16:00:00 12.6 13 Oeste 18 Sudoeste 0 -- -- 43
2017-11-15 15:00:00 13.4 9 Sudoeste 15 Sudoeste 0 -- -- 39
2017-11-15 14:00:00 13 8 Oeste 16 Oeste 0 -- -- 39
2017-11-15 13:00:00 12.1 7 Oeste 15 Oeste 0 -- -- 41
2017-11-15 12:00:00 11.2 7 Oeste 13 Oeste 0 -- -- 41
2017-11-15 11:00:00 10.5 9 Oeste 14 Sudoeste 0 -- -- 42
2017-11-15 10:00:00 7.9 5 Oeste 10 Sudoeste 0 -- -- 52
2017-11-15 09:00:00 5.3 6 Sudoeste 8 Sudoeste 0 -- -- 56
2017-11-15 08:00:00 4.5 0 Calma 4 Sudoeste 0 -- -- 57
2017-11-15 07:00:00 4.3 2 Sudoeste 5 Sudoeste 0 -- -- 57
2017-11-15 06:00:00 4.6 2 Sudoeste 4 Oeste 0 -- -- 56
2017-11-15 05:00:00 3.7 0 Calma 8 Este 0 -- -- 60
2017-11-15 04:00:00 3.3 2 Sudoeste 8 Oeste 0 -- -- 61
2017-11-15 03:00:00 5.3 4 Sudoeste 8 Oeste 0 -- -- 54
2017-11-15 02:00:00 5 4 Sudoeste 8 Oeste 0 -- -- 55
2017-11-15 01:00:00 4.6 3 Noroeste 14 Sudoeste 0 -- -- 57
2017-11-15 00:00:00 4.9 12 Sudoeste 18 Sudoeste 0 -- -- 56
2017-11-14 23:00:00 2.9 13 Sudoeste 15 Sudoeste 0 -- -- 63
2017-11-14 22:00:00 1.7 8 Sudoeste 14 Oeste 0 -- -- 71
2017-11-14 21:00:00 3.3 13 Sudoeste 15 Sudoeste 0 -- -- 62
2017-11-14 20:00:00 2.7 10 Sudoeste 13 Sudoeste 0 -- -- 65
2017-11-14 19:00:00 3.8 8 Sudoeste 11 Noroeste 0 -- -- 59
2017-11-14 18:00:00 6.8 5 Noroeste 16 Oeste 0 -- -- 48
2017-11-14 17:00:00 9.3 10 Oeste 16 Oeste 0 -- -- 42
2017-11-14 16:00:00 9.6 9 Noroeste 20 Oeste 0 -- -- 43
2017-11-14 15:00:00 9 6 Oeste 17 Oeste 0 -- -- 51
2017-11-14 14:00:00 7.5 8 Noroeste 17 Oeste 0 -- -- 57
2017-11-14 13:00:00 6 8 Noroeste 14 Oeste 0 -- -- 69
2017-11-14 12:00:00 4.7 8 Oeste 15 Oeste 0 -- -- 74
2017-11-14 11:00:00 3 3 Oeste 9 Oeste 0 -- -- 86
2017-11-14 10:00:00 1.2 2 Sudoeste 4 Sur 0 -- -- 96
2017-11-14 09:00:00 -1 3 Sur 4 Sur 0 -- -- 100
2017-11-14 08:00:00 -1.5 0 Calma 4 Oeste 0 -- -- 99
2017-11-14 07:00:00 -1.5 0 Calma 6 Sudeste 0 -- -- 99
2017-11-14 06:00:00 -1.7 5 Sudoeste 6 Sudoeste 0 -- -- 98
2017-11-14 05:00:00 -1 3 Oeste 5 Noroeste 0 -- -- 98
2017-11-14 04:00:00 -0.7 0 Calma 6 Norte 0 -- -- 97
2017-11-14 03:00:00 0 0 Calma 9 Norte 0 -- -- 98
2017-11-14 02:00:00 -0.1 3 Nordeste 10 Norte 0 -- -- 99
2017-11-14 01:00:00 -0.6 2 Este 15 Nordeste 0 -- -- 98
2017-11-14 00:00:00 -0.9 7 Este 14 Norte 0 -- -- 97
2017-11-13 23:00:00 -0.3 4 Norte 22 Norte 0 -- -- 95
2017-11-13 22:00:00 0.1 9 Norte 23 Norte 0 -- -- 93
2017-11-13 21:00:00 0.6 8 Norte 36 Norte 0 -- -- 93
2017-11-13 20:00:00 1 19 Norte 34 Norte 0 -- -- 91
2017-11-13 19:00:00 2 15 Norte 39 Norte 0 -- -- 89
2017-11-13 18:00:00 2.5 18 Norte 42 Norte 0 -- -- 82
2017-11-13 17:00:00 3.9 22 Nordeste 39 Norte 0 -- -- 72
2017-11-13 16:00:00 4.3 19 Norte 40 Norte 0 -- -- 70
2017-11-13 15:00:00 5.3 26 Nordeste 43 Norte 0 -- -- 72
2017-11-13 14:00:00 6 20 Norte 45 Norte 0 -- -- 68
2017-11-13 13:00:00 5.6 27 Norte 49 Nordeste 0 -- -- 69
2017-11-13 12:00:00 5.3 21 Norte 42 Norte 0 -- -- 75
2017-11-13 11:00:00 4 22 Norte 33 Norte 0 -- -- 90
2017-11-13 10:00:00 3.2 12 Norte 27 Norte 0 -- -- 96
2017-11-13 09:00:00 2.4 16 Norte 30 Norte 0 -- -- 95
2017-11-13 08:00:00 1.9 9 Norte 18 Norte 0 -- -- 95
2017-11-13 07:00:00 2.6 6 Norte 26 Norte 0 -- -- 95
2017-11-13 06:00:00 3.3 14 Norte 26 Norte 0 -- -- 96
2017-11-13 05:00:00 4.5 8 Noroeste 24 Noroeste 0 -- -- 91
2017-11-13 04:00:00 5.9 10 Norte 22 Norte 0 -- -- 94
2017-11-13 03:00:00 6 3 Nordeste 10 Nordeste 0 -- -- 94
2017-11-13 02:00:00 6.2 4 Noroeste 8 Noroeste 0 -- -- 92
2017-11-13 01:00:00 5.5 5 Nordeste 13 Nordeste 0 -- -- 92
2017-11-13 00:00:00 6.4 5 Nordeste 9 Nordeste 0 -- -- 83
2017-11-12 23:00:00 7 3 Noroeste 6 Noroeste 0 -- -- 76
2017-11-12 22:00:00 6.4 3 Oeste 8 Sudoeste 0 -- -- 76
2017-11-12 21:00:00 6.3 5 Sudoeste 6 Sudoeste 0 -- -- 76
2017-11-12 20:00:00 7.3 3 Sudoeste 6 Norte 0 -- -- 72
2017-11-12 19:00:00 7.7 6 Noroeste 10 Noroeste 0 -- -- 71
2017-11-12 18:00:00 9.3 7 Oeste 16 Noroeste 0 -- -- 64
2017-11-12 17:00:00 11.2 12 Noroeste 23 Noroeste 0 -- -- 57
2017-11-12 16:00:00 12.3 16 Oeste 27 Oeste 0 -- -- 52
2017-11-12 15:00:00 12.2 18 Oeste 29 Oeste 0 -- -- 60
2017-11-12 14:00:00 11.7 15 Oeste 23 Oeste 0 -- -- 64
2017-11-12 13:00:00 10.8 14 Oeste 23 Sudoeste 0 -- -- 69
2017-11-12 12:00:00 9.8 12 Oeste 22 Sudoeste 0 -- -- 71
2017-11-12 11:00:00 8.7 14 Oeste 19 Sudoeste 0 -- -- 78
2017-11-12 10:00:00 7.3 12 Sudoeste 15 Sudoeste 0 -- -- 86
2017-11-12 09:00:00 5.5 5 Sudoeste 11 Sudoeste 0 -- -- 91
2017-11-12 08:00:00 4.6 7 Sudoeste 10 Sudoeste 0 -- -- 92
2017-11-12 07:00:00 5.1 6 Oeste 11 Sudoeste 0 -- -- 90
2017-11-12 06:00:00 5.1 8 Sudoeste 14 Sudoeste 0 -- -- 91
2017-11-12 05:00:00 5.1 9 Sudoeste 13 Sudoeste 0 -- -- 91
2017-11-12 04:00:00 4.9 10 Sudoeste 13 Sudoeste 0 -- -- 90
2017-11-12 03:00:00 4.6 8 Sudoeste 10 Sudoeste 0 -- -- 91
2017-11-12 02:00:00 5.2 6 Sudoeste 13 Sudoeste 0 -- -- 89
2017-11-12 01:00:00 5.1 9 Sudoeste 10 Sudoeste 0 -- -- 89
2017-11-12 00:00:00 5.5 7 Sudoeste 8 Sudoeste 0 -- -- 87
2017-11-11 23:00:00 5.8 3 Sudoeste 7 Sudoeste 0 -- -- 91
2017-11-11 22:00:00 5.6 4 Sudeste 10 Este 0 -- -- 94
2017-11-11 21:00:00 3.8 10 Este 10 Este 0 -- -- 93
2017-11-11 20:00:00 4.8 5 Este 8 Este 0 -- -- 89
2017-11-11 19:00:00 7.1 2 Sudoeste 6 Noroeste 0 -- -- 84
2017-11-11 18:00:00 8.2 4 Noroeste 9 Oeste 0 -- -- 79
2017-11-11 17:00:00 9.6 7 Oeste 14 Norte 0 -- -- 74
2017-11-11 16:00:00 9.3 5 Norte 17 Noroeste 0 -- -- 76
2017-11-11 15:00:00 9 9 Norte 15 Oeste 0 -- -- 79
2017-11-11 14:00:00 8.5 9 Oeste 16 Norte 0 -- -- 81
2017-11-11 13:00:00 7.6 9 Norte 17 Noroeste 0 -- -- 86
2017-11-11 12:00:00 6.9 9 Nordeste 17 Norte 0 -- -- 90
2017-11-11 11:00:00 6.5 10 Nordeste 17 Nordeste 0 -- -- 96
2017-11-11 10:00:00 5.1 6 Nordeste 14 Norte 0 -- -- 100
2017-11-11 09:00:00 3.8 4 Norte 9 Norte 0 -- -- 100
2017-11-11 08:00:00 3.9 4 Norte 8 Noroeste 0 -- -- 100
2017-11-11 07:00:00 4.2 4 Noroeste 8 Noroeste 0 -- -- 100
2017-11-11 06:00:00 3.4 5 Este 7 Este 0 -- -- 100
2017-11-11 05:00:00 4 0 Calma 3 Noroeste 0 -- -- 100
2017-11-11 04:00:00 4.4 2 Sudoeste 8 Noroeste 0 -- -- 99
2017-11-11 03:00:00 4.7 4 Norte 9 Norte 0 -- -- 98
2017-11-11 02:00:00 5.2 6 Nordeste 11 Norte 0 -- -- 98
2017-11-11 01:00:00 5.9 6 Nordeste 12 Nordeste 0 -- -- 98
2017-11-11 00:00:00 5.7 6 Nordeste 12 Nordeste 0 -- -- 99
2017-11-10 23:00:00 5.3 7 Este 19 Nordeste 0 -- -- 97
2017-11-10 22:00:00 5.7 14 Nordeste 24 Norte 0 -- -- 98
2017-11-10 21:00:00 6.4 16 Norte 28 Nordeste 0 -- -- 96
2017-11-10 20:00:00 6.7 9 Nordeste 15 Norte 0 -- -- 96
2017-11-10 19:00:00 7.7 10 Norte 19 Nordeste 0 -- -- 94
2017-11-10 18:00:00 8.3 10 Norte 24 Norte 0 -- -- 92
2017-11-10 17:00:00 8.7 11 Norte 24 Norte 0 -- -- 93
2017-11-10 16:00:00 7.1 6 Norte 15 Norte 0 -- -- 98
2017-11-10 15:00:00 5.9 8 Oeste 15 Sudoeste 0 -- -- 98
2017-11-10 14:00:00 6 6 Oeste 12 Oeste 0 -- -- 94
2017-11-10 13:00:00 5.4 6 Oeste 13 Sudoeste 0 -- -- 97
2017-11-10 12:00:00 4.2 9 Sudoeste 20 Oeste 0 -- -- 98
2017-11-10 11:00:00 3.6 10 Oeste 22 Sudoeste 0 -- -- 94
2017-11-10 10:00:00 3.2 15 Sudoeste 22 Oeste 0 -- -- 89
2017-11-10 09:00:00 2.8 9 Sudoeste 19 Sudoeste 0 -- -- 90
2017-11-10 08:00:00 2.2 13 Sudoeste 25 Sudoeste 0 -- -- 95
2017-11-10 07:00:00 2.2 12 Oeste 22 Sudoeste 0 -- -- 94
2017-11-10 06:00:00 2.2 12 Sudoeste 19 Sudoeste 0 -- -- 97
2017-11-10 05:00:00 2.5 8 Oeste 12 Oeste 0 -- -- 96
2017-11-10 04:00:00 2.4 5 Oeste 10 Noroeste 0 -- -- 92
2017-11-10 03:00:00 2.6 4 Noroeste 7 Noroeste 0 -- -- 91
2017-11-10 02:00:00 2.4 4 Norte 12 Norte 0 -- -- 90
2017-11-10 01:00:00 2.2 6 Norte 13 Norte 0 -- -- 87
2017-11-10 00:00:00 1.9 6 Nordeste 13 Norte 0 -- -- 87
2017-11-09 23:00:00 1.2 8 Nordeste 22 Nordeste 0 -- -- 89
2017-11-09 22:00:00 1.5 14 Norte 26 Norte 0 -- -- 85
2017-11-09 21:00:00 1.8 17 Norte 29 Norte 0 -- -- 84
2017-11-09 20:00:00 2.5 7 Norte 23 Norte 0 -- -- 82
2017-11-09 19:00:00 3.2 11 Norte 22 Norte 0 -- -- 83
2017-11-09 18:00:00 4 7 Norte 21 Norte 0 -- -- 79
2017-11-09 17:00:00 4.9 14 Norte 26 Norte 0 -- -- 78
2017-11-09 16:00:00 5.8 13 Norte 29 Norte 0 -- -- 77
2017-11-09 15:00:00 4.5 14 Norte 28 Noroeste 0 -- -- 83
2017-11-09 14:00:00 3.6 15 Noroeste 27 Norte 0 -- -- 87
2017-11-09 13:00:00 3.2 9 Norte 25 Noroeste 0 -- -- 97
2017-11-09 12:00:00 1.8 8 Noroeste 17 Noroeste 0 -- -- 100
2017-11-09 11:00:00 1.3 8 Oeste 13 Oeste 0 -- -- 100
2017-11-09 10:00:00 0.5 6 Oeste 11 Oeste 0.2 -- -- 100
2017-11-09 09:00:00 0.1 0 Calma -- -- 0 -- -- 100
2017-11-09 08:00:00 0.1 0 Calma -- -- 0 -- -- 100
2017-11-09 07:00:00 0.1 0 Calma -- -- 0 -- -- 100
2017-11-09 06:00:00 0.1 0 Calma -- -- 0 -- -- 100
2017-11-09 05:00:00 0 0 Calma -- -- 0 -- -- 100
2017-11-09 04:00:00 -0.4 0 Calma -- -- 0 -- -- 100
2017-11-09 03:00:00 -0.5 0 Calma -- -- 0 -- -- 100
2017-11-09 02:00:00 -0.9 0 Calma -- -- 0 -- -- 99
2017-11-09 01:00:00 -1.1 0 Calma -- -- 0 -- -- 99
2017-11-09 00:00:00 -0.9 0 Calma 12 Nordeste 0 -- -- 100
2017-11-08 23:00:00 -0.4 6 Nordeste 15 Nordeste 0 -- -- 98
2017-11-08 22:00:00 0.1 5 Nordeste 13 Nordeste 0 -- -- 98
2017-11-08 21:00:00 0.4 5 Nordeste 17 Nordeste 0 -- -- 96
2017-11-08 20:00:00 1.3 11 Nordeste 20 Nordeste 0.2 -- -- 94
2017-11-08 19:00:00 1.7 9 Nordeste 27 Norte 0.6 -- -- 98
2017-11-08 18:00:00 1.9 20 Nordeste 45 Norte 1 -- -- 95
2017-11-08 17:00:00 6.3 11 Oeste 20 Oeste 0 -- -- 62
2017-11-08 16:00:00 6.5 9 Oeste 26 Oeste 0 -- -- 62
2017-11-08 15:00:00 6.8 14 Oeste 24 Oeste 0 -- -- 62
2017-11-08 14:00:00 6.6 10 Noroeste 21 Noroeste 0 -- -- 67
2017-11-08 13:00:00 5.8 7 Noroeste 22 Norte 0 -- -- 67
2017-11-08 12:00:00 5.1 10 Norte 21 Norte 0 -- -- 69
2017-11-08 11:00:00 4.2 11 Norte 18 Nordeste 0 -- -- 80
2017-11-08 10:00:00 3.4 7 Norte 15 Norte 0 -- -- 88
2017-11-08 09:00:00 2.1 5 Nordeste 16 Nordeste 0 -- -- 97
2017-11-08 08:00:00 1.4 4 Nordeste 11 Nordeste 0 -- -- 97
2017-11-08 07:00:00 1.5 6 Nordeste 17 Norte 0 -- -- 96
2017-11-08 06:00:00 2.3 7 Nordeste 15 Nordeste 0 -- -- 93
2017-11-08 05:00:00 3.7 5 Nordeste 14 Norte 0 -- -- 89
2017-11-08 04:00:00 3.9 6 Nordeste 15 Nordeste 0 -- -- 91
2017-11-08 03:00:00 4.2 8 Nordeste 21 Nordeste 0 -- -- 89
2017-11-08 02:00:00 5.7 11 Nordeste 27 Norte 0 -- -- 88
2017-11-08 01:00:00 6.5 10 Norte 18 Norte 0 -- -- 83
2017-11-08 00:00:00 7 8 Oeste 18 Sudoeste 0 -- -- 78
2017-11-07 23:00:00 7.3 10 Sudoeste 18 Sudoeste 0 -- -- 73
2017-11-07 22:00:00 7 12 Sudoeste 15 Sudoeste 0 -- -- 72
2017-11-07 21:00:00 6.7 11 Sudoeste 18 Sudoeste 0 -- -- 73
2017-11-07 20:00:00 6 12 Sudoeste 17 Sudoeste 0 -- -- 75
2017-11-07 19:00:00 5.7 14 Sudoeste 18 Sudoeste 0 -- -- 76
2017-11-07 18:00:00 8 10 Sudoeste 18 Sudoeste 0 -- -- 69
2017-11-07 17:00:00 9.8 12 Oeste 24 Oeste 0 -- -- 63
2017-11-07 16:00:00 10 15 Oeste 23 Sudoeste 0 -- -- 64
2017-11-07 15:00:00 9.6 14 Oeste 24 Sudoeste 0 -- -- 65
2017-11-07 14:00:00 8.7 15 Oeste 23 Oeste 0 -- -- 68
2017-11-07 13:00:00 7.4 13 Oeste 25 Sudoeste 0 -- -- 73
2017-11-07 12:00:00 6 12 Sudoeste 19 Oeste 0 -- -- 82
2017-11-07 11:00:00 4.6 11 Oeste 19 Sudoeste 0 -- -- 89
2017-11-07 10:00:00 3.5 8 Sudoeste 13 Sudoeste 0 -- -- 97
2017-11-07 09:00:00 1.3 7 Sudoeste 10 Sudoeste 0 -- -- 99
2017-11-07 08:00:00 0.7 5 Sudoeste 7 Sudoeste 0 -- -- 99
2017-11-07 07:00:00 0.9 4 Sudoeste 6 Oeste 0 -- -- 97
2017-11-07 06:00:00 1.3 3 Norte 11 Norte 0 -- -- 96
2017-11-07 05:00:00 1.3 5 Norte 21 Nordeste 0 -- -- 95
2017-11-07 04:00:00 1.6 7 Norte 13 Norte 0 -- -- 93
2017-11-07 03:00:00 1.3 3 Oeste 10 Norte 0 -- -- 94
2017-11-07 02:00:00 1.5 6 Norte 13 Norte 0 -- -- 94
2017-11-07 01:00:00 1.3 5 Norte 18 Nordeste 0 -- -- 96
2017-11-07 00:00:00 1.2 12 Nordeste 20 Nordeste 0 -- -- 97
2017-11-06 23:00:00 1.7 12 Nordeste 22 Nordeste 0 -- -- 94
2017-11-06 22:00:00 2.1 14 Nordeste 23 Norte 0 -- -- 90
2017-11-06 21:00:00 2.3 5 Norte 18 Norte 0 -- -- 87
2017-11-06 20:00:00 3 12 Norte 19 Norte 0 -- -- 83
2017-11-06 19:00:00 3.9 8 Norte 26 Norte 0 -- -- 80
2017-11-06 18:00:00 5.3 14 Nordeste 32 Nordeste 0 -- -- 76
2017-11-06 17:00:00 6.5 17 Norte 35 Norte 0 -- -- 71
2017-11-06 16:00:00 7.3 21 Norte 37 Norte 0 -- -- 65
2017-11-06 15:00:00 7.4 18 Norte 37 Norte 0 -- -- 66
2017-11-06 14:00:00 6.8 15 Norte 33 Norte 0 -- -- 72
2017-11-06 13:00:00 6 21 Norte 35 Norte 0 -- -- 81
2017-11-06 12:00:00 5.2 15 Norte 30 Noroeste 0 -- -- 85
2017-11-06 11:00:00 4.3 13 Noroeste 25 Noroeste 0 -- -- 93
2017-11-06 10:00:00 3.8 12 Norte 21 Norte 0 -- -- 94
2017-11-06 09:00:00 3.1 8 Noroeste 14 Noroeste 0 -- -- 97
2017-11-06 08:00:00 2.6 5 Noroeste 10 Noroeste 0 -- -- 98
2017-11-06 07:00:00 2.6 4 Noroeste 9 Oeste 0 -- -- 98
2017-11-06 06:00:00 2.5 4 Oeste 10 Oeste 0 -- -- 98
2017-11-06 05:00:00 2.2 6 Oeste 9 Oeste 0 -- -- 97
2017-11-06 04:00:00 2.6 4 Noroeste 14 Noroeste 0 -- -- 96
2017-11-06 03:00:00 2.1 5 Norte 8 Norte 0 -- -- 95
2017-11-06 02:00:00 2 4 Nordeste 12 Norte 0 -- -- 95
2017-11-06 01:00:00 2.1 4 Nordeste 11 Norte 0 -- -- 95
2017-11-06 00:00:00 2.2 8 Nordeste 15 Nordeste 0 -- -- 94
2017-11-05 23:00:00 3.1 5 Nordeste 16 Nordeste 0 -- -- 89
2017-11-05 22:00:00 4.5 6 Norte 12 Nordeste 0 -- -- 85
2017-11-05 21:00:00 5.1 5 Nordeste 27 Nordeste 0 -- -- 83
2017-11-05 20:00:00 6.2 8 Norte 21 Norte 0 -- -- 82
2017-11-05 19:00:00 6.8 10 Noroeste 22 Norte 0 -- -- 77
2017-11-05 18:00:00 7.7 8 Noroeste 24 Noroeste 0 -- -- 72
2017-11-05 17:00:00 8.8 15 Noroeste 22 Oeste 0 -- -- 64
2017-11-05 16:00:00 8 9 Noroeste 25 Noroeste 0 -- -- 70
2017-11-05 15:00:00 9 12 Noroeste 21 Oeste 0 -- -- 68
2017-11-05 14:00:00 8 13 Noroeste 24 Noroeste 0 -- -- 70
2017-11-05 13:00:00 7.1 13 Noroeste 23 Noroeste 0 -- -- 77
2017-11-05 12:00:00 6.9 12 Norte 21 Norte 0 -- -- 80
2017-11-05 11:00:00 5.9 9 Norte 23 Nordeste 0 -- -- 86
2017-11-05 10:00:00 5 11 Nordeste 21 Nordeste 0 -- -- 90
2017-11-05 09:00:00 4.5 12 Nordeste 24 Nordeste 0 -- -- 92
2017-11-05 08:00:00 4.7 8 Nordeste 19 Nordeste 0 -- -- 92
2017-11-05 07:00:00 5 9 Nordeste 21 Nordeste 0 -- -- 92
2017-11-05 06:00:00 5.4 13 Nordeste 24 Nordeste 0 -- -- 94
2017-11-05 05:00:00 6.1 13 Nordeste 26 Nordeste 0 -- -- 97
2017-11-05 04:00:00 6.7 10 Norte 23 Norte 0 -- -- 96
2017-11-05 03:00:00 7 6 Norte 14 Norte 0 -- -- 97
2017-11-05 02:00:00 7.2 5 Norte 13 Nordeste 0 -- -- 96
2017-11-05 01:00:00 7.2 6 Norte 13 Nordeste 0 -- -- 97
2017-11-05 00:00:00 7.1 8 Nordeste 13 Nordeste 0 -- -- 97
2017-11-04 23:00:00 7.5 2 Nordeste 12 Norte 0 -- -- 98
2017-11-04 22:00:00 7.8 6 Norte 20 Noroeste 0 -- -- 97
2017-11-04 21:00:00 8.7 13 Noroeste 25 Noroeste 0 -- -- 97
2017-11-04 20:00:00 8.7 12 Noroeste 21 Noroeste 0 -- -- 96
2017-11-04 19:00:00 9.5 15 Noroeste 25 Noroeste 0 -- -- 95
2017-11-04 18:00:00 9.6 6 Sudoeste 13 Oeste 0 -- -- 90
2017-11-04 17:00:00 10.2 10 Oeste 15 Oeste 0 -- -- 89
2017-11-04 16:00:00 10.9 13 Oeste 26 Oeste 0.2 -- -- 86
2017-11-04 15:00:00 11.1 8 Oeste 18 Oeste 0 -- -- 80
2017-11-04 14:00:00 12 9 Oeste 20 Sudoeste 0 -- -- 71
2017-11-04 13:00:00 10.9 8 Oeste 15 Sudoeste 0 -- -- 83
2017-11-04 12:00:00 9.1 7 Oeste 15 Sudoeste 0 -- -- 96
2017-11-04 11:00:00 8.4 9 Sudoeste 18 Sudoeste 0.6 -- -- 97
2017-11-04 10:00:00 7.9 11 Sudoeste 29 Sudoeste 0.4 -- -- 96
2017-11-04 09:00:00 7.4 20 Sudoeste 39 Sudoeste 0 -- -- 93
2017-11-04 08:00:00 8.9 25 Sudoeste 38 Sudoeste 0 -- -- 85
2017-11-04 07:00:00 8.9 11 Sur 21 Sudoeste 0 -- -- 87
2017-11-04 06:00:00 8.7 10 Sudoeste 17 Sur 0 -- -- 89
2017-11-04 05:00:00 8.5 11 Sudeste 20 Sudeste 0 -- -- 87
2017-11-04 04:00:00 8.8 13 Sudeste 27 Sur 1.2 -- -- 87
2017-11-04 03:00:00 10.4 20 Sur 32 Sur 0 -- -- 82
2017-11-04 02:00:00 10.2 13 Sudeste 20 Sudeste 0 -- -- 78
2017-11-04 01:00:00 9.9 10 Sur 17 Sudeste 0 -- -- 77
2017-11-04 00:00:00 9.7 15 Sudeste 18 Sudeste 0 -- -- 77
2017-11-03 23:00:00 9.5 12 Sudeste 16 Sudeste 0 -- -- 76
2017-11-03 22:00:00 10.3 13 Sur 20 Sudeste 0 -- -- 72
2017-11-03 21:00:00 10.5 11 Sur 23 Sur 0 -- -- 71
2017-11-03 20:00:00 10.8 13 Sur 19 Sur 0 -- -- 68
2017-11-03 19:00:00 11.2 13 Sur 18 Sur 0 -- -- 65
2017-11-03 18:00:00 12.4 11 Sudoeste 24 Sudoeste 0 -- -- 61
2017-11-03 17:00:00 13.8 18 Sudoeste 30 Sudoeste 0 -- -- 58
2017-11-03 16:00:00 14.4 17 Sudoeste 31 Sudoeste 0 -- -- 63
2017-11-03 15:00:00 14 13 Oeste 24 Oeste 0 -- -- 71
2017-11-03 14:00:00 12.5 15 Oeste 29 Sudoeste 0 -- -- 77
2017-11-03 13:00:00 12.9 15 Sudoeste 28 Oeste 0 -- -- 79
2017-11-03 12:00:00 11.4 14 Sudoeste 21 Sudoeste 0 -- -- 84
2017-11-03 11:00:00 10.7 11 Sudoeste 21 Sudoeste 0 -- -- 84
2017-11-03 10:00:00 9.5 11 Sudoeste 18 Sur 0 -- -- 90
2017-11-03 09:00:00 8.7 14 Sur 18 Sur 0 -- -- 91
2017-11-03 08:00:00 7.8 10 Sudoeste 19 Oeste 0.2 -- -- 96
2017-11-03 07:00:00 7.4 9 Sudoeste 47 Sudoeste 0.8 -- -- 98
2017-11-03 06:00:00 8.6 42 Oeste 62 Sudoeste 1 -- -- 91
2017-11-03 05:00:00 11.8 20 Sur 40 Sudoeste 0 -- -- 74
2017-11-03 04:00:00 11.6 22 Sur 33 Sur 0 -- -- 76
2017-11-03 03:00:00 11.7 22 Sudeste 36 Sudeste 0 -- -- 72
2017-11-03 02:00:00 11.5 18 Sudeste 31 Sur 0 -- -- 70
2017-11-03 01:00:00 12.1 22 Sur 35 Sur 0 -- -- 69
2017-11-03 00:00:00 11.8 24 Sur 35 Sur 0 -- -- 71
2017-11-02 23:00:00 11.6 24 Sur 36 Sudeste 0 -- -- 74
2017-11-02 22:00:00 11.7 22 Sur 37 Sur 0 -- -- 74
2017-11-02 21:00:00 11.6 18 Sur 27 Sur 0 -- -- 75
2017-11-02 20:00:00 11.5 13 Sudeste 20 Sudeste 0 -- -- 75
2017-11-02 19:00:00 12 13 Sur 21 Sur 0 -- -- 73
2017-11-02 18:00:00 12.9 12 Sur 23 Sur 0 -- -- 69
2017-11-02 17:00:00 13.6 12 Sur 30 Sudoeste 0 -- -- 66
2017-11-02 16:00:00 15.4 17 Sudoeste 29 Sudoeste 0 -- -- 54
2017-11-02 15:00:00 15.3 14 Sur 27 Sur 0 -- -- 60
2017-11-02 14:00:00 14.4 14 Sur 28 Sur 0 -- -- 64
2017-11-02 13:00:00 14.3 17 Sur 29 Sur 0 -- -- 63
2017-11-02 12:00:00 14.3 11 Sur 25 Sudoeste 0 -- -- 65
2017-11-02 11:00:00 13.6 14 Sur 25 Sur 0 -- -- 68
2017-11-02 10:00:00 12.7 15 Sur 25 Sudeste 0 -- -- 70
2017-11-02 09:00:00 11.9 15 Sur 23 Sur 0 -- -- 73
2017-11-02 08:00:00 11.2 16 Sur 25 Sudeste 0 -- -- 76
2017-11-02 07:00:00 11.6 16 Sur 23 Sur 0 -- -- 74
2017-11-02 06:00:00 11.9 12 Sur 23 Sur 0 -- -- 73
2017-11-02 05:00:00 11.6 18 Sur 24 Sudeste 0 -- -- 74
2017-11-02 04:00:00 11.4 17 Sudeste 23 Sudeste 0 -- -- 76
2017-11-02 03:00:00 11.6 14 Sudeste 21 Sur 0 -- -- 73
2017-11-02 02:00:00 12.3 14 Sur 19 Sudeste 0 -- -- 69
2017-11-02 01:00:00 12.2 13 Sur 19 Sur 0 -- -- 67
2017-11-02 00:00:00 12.7 13 Sur 19 Sudeste 0 -- -- 65
2017-11-01 23:00:00 12.6 15 Sur 22 Sur 0 -- -- 67
2017-11-01 22:00:00 11.8 14 Sudeste 20 Sur 0 -- -- 70
2017-11-01 21:00:00 12.2 15 Sur 26 Sur 0 -- -- 68
2017-11-01 20:00:00 12.2 16 Sur 23 Sudeste 0 -- -- 69
2017-11-01 19:00:00 12.3 14 Sur -- -- -- -- -- 69
2017-11-01 18:00:00 14.1 15 Sur 24 Sur 0 -- -- 61
2017-11-01 17:00:00 15.9 13 Sudeste 23 Sudeste 0 -- -- 54
2017-11-01 16:00:00 16.7 12 Sudeste 24 Sudeste 0 -- -- 51
2017-11-01 15:00:00 16.5 12 Sudeste 20 Sur 0 -- -- 51
2017-11-01 14:00:00 17.3 10 Sudeste 20 Sudeste 0 -- -- 48
2017-11-01 13:00:00 17.4 11 Sudoeste 22 Sudoeste 0 -- -- 42
2017-11-01 12:00:00 16.2 12 Sudoeste 21 Sudoeste 0 -- -- 43
2017-11-01 11:00:00 15.1 8 Sur 19 Sur 0 -- -- 54
2017-11-01 10:00:00 13.3 12 Sur 22 Sur 0 -- -- 60
2017-11-01 09:00:00 11.5 13 Sur 20 Sur 0 -- -- 64
2017-11-01 08:00:00 10.2 14 Sur 18 Sur 0 -- -- 68
2017-11-01 07:00:00 9.8 13 Sur 19 Sur 0 -- -- 71
2017-11-01 06:00:00 9.8 14 Sur 21 Sudeste 0 -- -- 72
2017-11-01 05:00:00 9.9 10 Sur 19 Sur 0 -- -- 64
2017-11-01 04:00:00 9.8 7 Sur 10 Sur 0 -- -- 63
2017-11-01 03:00:00 10.2 9 Sur 12 Sur 0 -- -- 59
2017-11-01 02:00:00 11.3 4 Sur 5 Sur 0 -- -- 56
2017-11-01 01:00:00 11.1 4 Sur 4 Sur 0 -- -- 58
2017-11-01 00:00:00 10 2 Sudeste 4 Sudeste 0 -- -- 65
2017-10-31 23:00:00 10.6 3 Sudeste 8 Sur 0 -- -- 64
2017-10-31 22:00:00 9.8 4 Sudoeste 10 Sur 0 -- -- 74
2017-10-31 21:00:00 10.8 5 Sudeste 8 Sudeste 0 -- -- 69
2017-10-31 20:00:00 9.1 4 Sudeste 9 Sudeste 0 -- -- 66
2017-10-31 19:00:00 11.5 5 Sudoeste 9 Oeste 0 -- -- 58
2017-10-31 18:00:00 14 7 Oeste 18 Oeste 0 -- -- 52
2017-10-31 17:00:00 16.1 12 Oeste 20 Oeste 0 -- -- 47
2017-10-31 16:00:00 17.2 10 Sudoeste 20 Sudoeste 0 -- -- 44
2017-10-31 15:00:00 17 10 Sudoeste 18 Sudoeste 0 -- -- 44
2017-10-31 14:00:00 16.5 8 Sudoeste 18 Oeste 0 -- -- 46
2017-10-31 13:00:00 14.6 6 Norte 16 Noroeste 0 -- -- 57
2017-10-31 12:00:00 14.1 4 Norte 9 Norte 0 -- -- 61
2017-10-31 11:00:00 12.4 4 Noroeste 7 Oeste 0 -- -- 69
2017-10-31 10:00:00 11.8 4 Norte 9 Oeste 0 -- -- 71
2017-10-31 09:00:00 10.5 9 Sudeste 17 Sudeste 0 -- -- 71
2017-10-31 08:00:00 8.2 6 Sudeste 9 Sudeste 0 -- -- 78
2017-10-31 07:00:00 6.6 6 Sudeste 8 Sudeste 0 -- -- 81
2017-10-31 06:00:00 7.3 7 Sudeste 12 Sudeste 0 -- -- 78
2017-10-31 05:00:00 6.4 9 Sudeste 13 Sudeste 0 -- -- 82
2017-10-31 04:00:00 4.1 4 Este 9 Este 0 -- -- 94
2017-10-31 03:00:00 3.7 5 Nordeste 12 Nordeste 0 -- -- 91
2017-10-31 02:00:00 5.5 3 Sudeste 10 Este 0 -- -- 86
2017-10-31 01:00:00 3.4 8 Este 10 Este 0 -- -- 93
2017-10-31 00:00:00 3.2 4 Este 7 Este 0 -- -- 93
2017-10-30 23:00:00 4 4 Este 7 Este 0 -- -- 93
2017-10-30 22:00:00 4.9 6 Nordeste 9 Nordeste 0 -- -- 92
2017-10-30 21:00:00 5.7 6 Nordeste 10 Nordeste 0 -- -- 90
2017-10-30 20:00:00 7 8 Nordeste 17 Nordeste 0 -- -- 85
2017-10-30 19:00:00 9 9 Nordeste 23 Norte 0 -- -- 78
2017-10-30 18:00:00 11.2 10 Norte 24 Norte 0 -- -- 69
2017-10-30 17:00:00 12.8 14 Norte 27 Norte 0 -- -- 66
2017-10-30 16:00:00 13.7 13 Norte 32 Norte 0 -- -- 65
2017-10-30 15:00:00 13.9 16 Norte 32 Norte 0 -- -- 63
2017-10-30 14:00:00 14.5 11 Nordeste 23 Nordeste 0 -- -- 60
2017-10-30 13:00:00 13.3 10 Nordeste 19 Nordeste 0 -- -- 65
2017-10-30 12:00:00 11.9 8 Nordeste 18 Nordeste 0 -- -- 72
2017-10-30 11:00:00 10 8 Norte 15 Norte 0 -- -- 82
2017-10-30 10:00:00 8.7 5 Nordeste 12 Este 0 -- -- 91
2017-10-30 09:00:00 7.7 6 Nordeste 9 Nordeste 0 -- -- 95
2017-10-30 08:00:00 5.4 3 Nordeste 10 Nordeste 0 -- -- 98
2017-10-30 07:00:00 5.2 4 Este 12 Nordeste 0 -- -- 98
2017-10-30 06:00:00 5.4 6 Nordeste 9 Nordeste 0 -- -- 97
2017-10-30 05:00:00 5.3 3 Este 9 Este 0 -- -- 97
2017-10-30 04:00:00 4.9 5 Este 9 Este 0 -- -- 96
2017-10-30 03:00:00 5.3 4 Este 8 Este 0 -- -- 94
2017-10-30 02:00:00 5.8 4 Nordeste 10 Este 0 -- -- 95
2017-10-30 01:00:00 5.2 6 Este 8 Este 0 -- -- 94
2017-10-30 00:00:00 6.2 0 Calma 10 Este 0 -- -- 93
2017-10-29 23:00:00 5.8 7 Este 10 Este 0 -- -- 93
2017-10-29 22:00:00 5.9 6 Este 9 Nordeste 0 -- -- 90
2017-10-29 21:00:00 6.9 3 Este 9 Norte 0 -- -- 85
2017-10-29 20:00:00 8.2 4 Norte 7 Norte 0 -- -- 81
2017-10-29 19:00:00 9.8 3 Norte 13 Norte 0 -- -- 72
2017-10-29 18:00:00 13 7 Norte 18 Norte 0 -- -- 58
2017-10-29 17:00:00 15.3 11 Norte 18 Norte 0 -- -- 46
2017-10-29 16:00:00 16.3 7 Norte 14 Norte 0 -- -- 35
2017-10-29 15:00:00 15.8 6 Norte 14 Noroeste 0 -- -- 32
2017-10-29 14:00:00 14.7 7 Norte 18 Norte 0 -- -- 39
2017-10-29 13:00:00 14 8 Noroeste 14 Noroeste 0 -- -- 44
2017-10-29 12:00:00 13.4 6 Noroeste 12 Noroeste 0 -- -- 56
2017-10-29 11:00:00 11.3 6 Oeste 10 Oeste 0 -- -- 73
2017-10-29 10:00:00 8.9 4 Oeste 9 Oeste 0 -- -- 79
2017-10-29 09:00:00 9.1 6 Noroeste 8 Sudoeste 0 -- -- 58
2017-10-29 08:00:00 5.9 6 Oeste 9 Sudoeste 0 -- -- 73
2017-10-29 07:00:00 4.3 9 Sudoeste 12 Sudoeste 0 -- -- 88
2017-10-29 06:00:00 5.6 8 Oeste 11 Oeste 0 -- -- 78
2017-10-29 05:00:00 8.4 6 Sudoeste 8 Sudoeste 0 -- -- 53
2017-10-29 04:00:00 7 6 Sudoeste 9 Oeste 0 -- -- 73
2017-10-29 03:00:00 6.7 5 Oeste 10 Oeste 0 -- -- 57
2017-10-29 02:00:00 8 3 Norte 9 Oeste 0 -- -- 61
2017-10-29 01:00:00 7.9 4 Este 12 Este 0 -- -- 65
2017-10-29 00:00:00 7 4 Este 8 Este 0 -- -- 78
2017-10-28 23:00:00 7.8 3 Este 8 Este 0 -- -- 74
2017-10-28 22:00:00 9 3 Nordeste 9 Este 0 -- -- 77
2017-10-28 21:00:00 9.1 8 Este 10 Este 0 -- -- 76
2017-10-28 20:00:00 11.3 3 Nordeste 14 Norte 0 -- -- 68
2017-10-28 19:00:00 13.9 8 Norte 13 Norte 0 -- -- 57
2017-10-28 18:00:00 15.7 7 Norte 19 Norte 0 -- -- 53
2017-10-28 17:00:00 16.4 10 Norte 19 Noroeste 0 -- -- 52
2017-10-28 16:00:00 16.9 9 Norte 19 Noroeste 0 -- -- 53
2017-10-28 15:00:00 16.2 7 Noroeste 18 Noroeste 0 -- -- 54
2017-10-28 14:00:00 14.9 9 Noroeste 13 Noroeste 0 -- -- 59
2017-10-28 13:00:00 13.7 5 Norte 10 Norte 0 -- -- 65
2017-10-28 12:00:00 11.6 4 Norte 9 Noroeste 0 -- -- 77
2017-10-28 11:00:00 11 5 Norte 7 Norte 0 -- -- 80
2017-10-28 10:00:00 9.6 0 Calma 6 Sudeste 0 -- -- 89
2017-10-28 09:00:00 6.9 5 Sudeste 8 Nordeste 0 -- -- 92
2017-10-28 08:00:00 6.6 5 Este 8 Este 0 -- -- 95
2017-10-28 07:00:00 7.1 3 Nordeste 8 Este 0 -- -- 96
2017-10-28 06:00:00 6.4 8 Este 10 Este 0 -- -- 96
2017-10-28 05:00:00 7.2 6 Este 12 Este 0 -- -- 95
2017-10-28 04:00:00 7.5 2 Este 5 Este 0 -- -- 93
2017-10-28 03:00:00 8.1 3 Sudeste 5 Este 0 -- -- 96
2017-10-28 02:00:00 8.6 3 Este 7 Nordeste 0 -- -- 92
2017-10-28 01:00:00 8.9 3 Nordeste 8 Este 0 -- -- 92
2017-10-28 00:00:00 9.6 6 Nordeste 18 Nordeste 0 -- -- 90
2017-10-27 23:00:00 10.6 9 Nordeste 23 Nordeste 0 -- -- 86
2017-10-27 22:00:00 11.9 12 Nordeste 20 Nordeste 0 -- -- 81
2017-10-27 21:00:00 13.4 14 Nordeste 25 Nordeste 0 -- -- 70
2017-10-27 20:00:00 15.1 12 Nordeste 17 Norte 0 -- -- 57
2017-10-27 19:00:00 17.6 10 Norte 29 Norte 0 -- -- 41
2017-10-27 18:00:00 19.4 17 Norte 31 Norte 0 -- -- 37
2017-10-27 17:00:00 20.1 18 Norte 34 Norte 0 -- -- 38
2017-10-27 16:00:00 20.5 18 Norte 36 Nordeste 0 -- -- 39
2017-10-27 15:00:00 20.3 14 Norte 25 Norte 0 -- -- 43
2017-10-27 14:00:00 19.7 10 Norte 23 Noroeste 0 -- -- 42
2017-10-27 13:00:00 18.6 9 Norte 19 Norte 0 -- -- 45
2017-10-27 12:00:00 18.1 10 Norte 19 Norte 0 -- -- 47
2017-10-27 11:00:00 17.6 6 Norte 11 Nordeste 0 -- -- 48
2017-10-27 10:00:00 15.9 3 Este 6 Nordeste 0 -- -- 52
2017-10-27 09:00:00 13.6 4 Este 6 Este 0 -- -- 55
2017-10-27 08:00:00 13.8 5 Este 10 Este 0 -- -- 55
2017-10-27 07:00:00 13.7 8 Este 10 Este 0 -- -- 55
2017-10-27 06:00:00 13.6 9 Este 10 Este 0 -- -- 53
2017-10-27 05:00:00 14.8 4 Este 9 Este 0 -- -- 46
2017-10-27 04:00:00 14.4 8 Este 9 Sudeste 0 -- -- 44
2017-10-27 03:00:00 13.8 4 Este 6 Este 0 -- -- 46
2017-10-27 02:00:00 15.8 0 Calma 3 Sudeste 0 -- -- 40
2017-10-27 01:00:00 16.1 2 Este 4 Este 0 -- -- 39
2017-10-27 00:00:00 17 0 Calma 4 Sur 0 -- -- 38
2017-10-26 23:00:00 17.5 3 Sudoeste 4 Sur 0 -- -- 37
2017-10-26 22:00:00 17.3 2 Sudeste 5 Este 0 -- -- 37
2017-10-26 21:00:00 15.7 4 Este 8 Este 0 -- -- 41
2017-10-26 20:00:00 17 4 Sudeste 5 Este 0 -- -- 39
2017-10-26 19:00:00 19.9 4 Norte 10 Oeste 0 -- -- 34
2017-10-26 18:00:00 22.3 5 Noroeste 10 Norte 0 -- -- 31
2017-10-26 17:00:00 22 4 Noroeste 15 Nordeste 0 -- -- 31
2017-10-26 16:00:00 21.8 8 Nordeste 15 Norte 0 -- -- 33
2017-10-26 15:00:00 22.2 3 Sudoeste 13 Noroeste 0 -- -- 30
2017-10-26 14:00:00 21.4 6 Norte 12 Oeste 0 -- -- 34
2017-10-26 13:00:00 21 7 Oeste 12 Oeste 0 -- -- 32
2017-10-26 12:00:00 20.1 2 Sur 8 Oeste 0 -- -- 35
2017-10-26 11:00:00 18.7 4 Sudoeste 6 Sudoeste 0 -- -- 41
2017-10-26 10:00:00 15.8 4 Este 6 Sudeste 0 -- -- 51
2017-10-26 09:00:00 13.4 0 Calma 2 Sudeste 0 -- -- 51
2017-10-26 08:00:00 14.8 0 Calma 3 Sudoeste 0 -- -- 46
2017-10-26 07:00:00 14.8 3 Sur 7 Sur 0 -- -- 46
2017-10-26 06:00:00 15 5 Sur 9 Sur 0 -- -- 45
2017-10-26 05:00:00 14.2 7 Sudoeste 13 Sudoeste 0 -- -- 49
2017-10-26 04:00:00 15.6 11 Sudoeste 16 Sudoeste 0 -- -- 45
2017-10-26 03:00:00 15.9 12 Sudoeste 15 Sudoeste 0 -- -- 43
2017-10-26 02:00:00 16.9 13 Sudoeste 17 Sudoeste 0 -- -- 37
2017-10-26 01:00:00 17.5 15 Sur 18 Sudoeste 0 -- -- 37
2017-10-26 00:00:00 17 14 Sur 19 Sur 0 -- -- 41